Houma, LA (70363)

4:39 AM CDT on October 24, 2014 (GMT -0500)
ASHLAND NORTH | Change Station
CLOSE
Current Station
Personal Weather Station
Location: Houma, LA
Elevation: 3 ft
Nearby Weather Stations

Elev 3 ft 29.54 °N, 90.67 °W | Updated 3 seconds ago

Clear
Clear
53.2 °F
Feels Like 53.2 °F
N
3.1
Wind Variable Wind from North
Gusts 3.1 mph

Today
High -- | Low -- °F
--% Chance of Precip.
Yesterday
High -- | Low -- °F
Precip. -- in
7:10 AM 6:23 PM
New Moon, 0% visible
Pressure 30.08 in
Visibility 7.0 miles
Clouds Clear
Dew Point 52 °F
Humidity 96%
Rainfall 0.00 in
Snow Depth Not available.
UV 0 out of 12
Pollen 3.50 out of 12
Air Quality Not available.
Flu Activity Sporadic
METAR KHUM 240915Z AUTO 35004KT 7SM CLR 12/11 A3008 RMK AO2 T01220112

More Conditions Fewer Conditions

Pressure 30.08 in
Visibility 7.0 miles
Clouds Clear
Dew Point 52 °F
Humidity 96%
Rainfall 0.00 in
Snow Depth Not available.
UV 0 out of 12
Pollen 3.50 out of 12
Air Quality Not available.
Flu Activity Sporadic
METAR KHUM 240915Z AUTO 35004KT 7SM CLR 12/11 A3008 RMK AO2 T01220112

More Conditions Fewer Conditions

10-Day Weather Forecast

Almanac

Astronomy

Oct. 24, 2014 Rise Set
Actual Time 7:10 AM CDT 6:23 PM CDT
Civil Twilight 6:46 AM CDT 6:47 PM CDT
Nautical Twilight 6:18 AM CDT 7:15 PM CDT
Astronomical Twilight 5:50 AM CDT 7:43 PM CDT
Moon 7:47 AM CDT 7:06 PM CDT
Length of Visible Light 12h 01m
Length of Day
11h 12m
Tomorrow will be 1m 38s shorter.
New Moon, 0% of the Moon is Illuminated
Today
New Moon
Oct 30
First Quarter
Nov 6
Full
Nov 14
Last Quarter
Nov 22
New

Today's Extremes

State Highs State Lows

Community

WunderPhotos

Upload Photos

1,764,513 photos uploaded!

WunderBlogs® & News

Nearby

Snow Depth

Station Depth Elevation
No new snow has been reported.

Earthquake Activity

City Distance Mag. Time & Date
No recent earthquake activity has been reported nearby.
Minimum magnitude displayed is 2.5.

Coastal Water Temperatures

Place Temperature
Amerada Pass, LA 69.1 °F

Nearby Weather Stations